createdAt,value
2023-01-22T00:00:06.799Z,91.28
2023-01-22T00:02:36.483Z,91.18
2023-01-22T00:05:04.613Z,91.53
2023-01-22T00:07:31.453Z,91.21
2023-01-22T00:09:59.945Z,91.28
2023-01-22T00:12:27.498Z,91.53
2023-01-22T00:14:54.233Z,90.91
2023-01-22T00:17:21.116Z,91.06
2023-01-22T00:19:48.067Z,91.23
2023-01-22T00:22:15.018Z,91.44
2023-01-22T00:24:42.266Z,90.99
2023-01-22T00:27:09.368Z,91.36
2023-01-22T00:29:36.626Z,91.07
2023-01-22T00:32:03.634Z,91.06
2023-01-22T00:34:30.985Z,91.43
2023-01-22T00:36:58.033Z,90.88
2023-01-22T00:39:25.038Z,91.59
2023-01-22T00:41:53.225Z,91.35
2023-01-22T00:44:19.791Z,91.27
2023-01-22T00:46:46.599Z,91.13
2023-01-22T00:49:13.207Z,90.61
2023-01-22T00:51:39.867Z,90.74
2023-01-22T00:54:06.973Z,91.41
2023-01-22T00:56:33.688Z,91.18
2023-01-22T00:59:00.318Z,91.93
2023-01-22T01:01:27.007Z,91.59
2023-01-22T01:03:53.934Z,91.25
2023-01-22T01:06:22.012Z,91.68
2023-01-22T01:08:49.910Z,91.81
2023-01-22T01:11:26.284Z,91.51
2023-01-22T01:13:53.783Z,91.15
2023-01-22T01:16:30.012Z,91.82
2023-01-22T01:19:01.714Z,91.89
2023-01-22T01:21:28.919Z,91.88
2023-01-22T01:23:56.349Z,91.90
2023-01-22T01:26:23.355Z,92.36
2023-01-22T01:28:52.498Z,91.73
2023-01-22T01:31:20.452Z,91.79
2023-01-22T01:33:47.249Z,91.81
2023-01-22T01:36:30.733Z,91.46
2023-01-22T01:39:06.064Z,91.27
2023-01-22T01:41:32.609Z,91.78
2023-01-22T01:44:13.395Z,91.73
2023-01-22T01:46:43.546Z,91.69
2023-01-22T01:49:20.068Z,90.84
2023-01-22T01:51:47.079Z,91.47
2023-01-22T01:54:13.686Z,91.23
2023-01-22T01:56:44.850Z,91.35
2023-01-22T01:59:14.970Z,91.54
2023-01-22T02:01:42.109Z,91.31
2023-01-22T02:04:08.931Z,91.48
2023-01-22T02:06:35.479Z,91.20
2023-01-22T02:09:02.790Z,91.72
2023-01-22T02:11:30.668Z,91.02
2023-01-22T02:14:04.900Z,91.40
2023-01-22T02:16:32.032Z,91.42
2023-01-22T02:18:58.995Z,91.30
2023-01-22T02:21:38.147Z,91.03
2023-01-22T02:24:13.809Z,91.43
2023-01-22T02:26:41.786Z,91.28
2023-01-22T02:29:11.841Z,91.36
2023-01-22T02:31:40.584Z,90.81
2023-01-22T02:34:09.673Z,91.06
2023-01-22T02:36:38.380Z,91.06
2023-01-22T02:39:06.614Z,90.78
2023-01-22T02:41:33.473Z,91.64
2023-01-22T02:44:00.627Z,91.13
2023-01-22T02:46:27.454Z,91.03
2023-01-22T02:48:54.043Z,91.35
2023-01-22T02:51:20.718Z,91.55
2023-01-22T02:53:47.465Z,91.13
2023-01-22T02:56:14.112Z,91.37
2023-01-22T02:58:40.877Z,91.11
2023-01-22T03:01:19.043Z,90.75
2023-01-22T03:03:54.635Z,90.66
2023-01-22T03:06:22.837Z,90.95
2023-01-22T03:08:58.231Z,90.77
2023-01-22T03:11:26.732Z,91.34
2023-01-22T03:14:13.729Z,91.67
2023-01-22T03:16:59.548Z,91.14
2023-01-22T03:19:45.343Z,90.88
2023-01-22T03:22:12.380Z,90.86
2023-01-22T03:24:39.349Z,90.98
2023-01-22T03:27:06.230Z,91.75
2023-01-22T03:29:33.019Z,90.62
2023-01-22T03:31:59.767Z,90.88
2023-01-22T03:34:26.654Z,91.23
2023-01-22T03:36:53.475Z,91.61
2023-01-22T03:39:20.261Z,91.34
2023-01-22T03:41:46.829Z,91.41
2023-01-22T03:44:14.271Z,92.14
2023-01-22T03:46:41.149Z,91.21
2023-01-22T03:49:08.313Z,91.29
2023-01-22T03:51:35.547Z,91.49
2023-01-22T03:54:02.381Z,91.40
2023-01-22T03:56:29.109Z,91.73
2023-01-22T03:58:56.395Z,91.37
2023-01-22T04:01:27.923Z,91.60
2023-01-22T04:03:55.061Z,91.73
2023-01-22T04:06:23.213Z,91.18
2023-01-22T04:08:51.491Z,91.22
2023-01-22T04:11:18.689Z,91.17
2023-01-22T04:13:45.997Z,91.38
2023-01-22T04:16:13.848Z,91.31
2023-01-22T04:18:41.679Z,91.08
2023-01-22T04:21:08.601Z,91.65
2023-01-22T04:23:35.436Z,91.70
2023-01-22T04:26:02.011Z,90.98
2023-01-22T04:28:28.995Z,91.29
2023-01-22T04:30:56.135Z,91.20
2023-01-22T04:33:22.755Z,91.73
2023-01-22T04:35:54.420Z,91.38
2023-01-22T04:38:21.061Z,91.33
2023-01-22T04:40:47.623Z,91.28
2023-01-22T04:43:14.158Z,91.28
2023-01-22T04:45:40.648Z,91.34
2023-01-22T04:48:08.591Z,91.10
2023-01-22T04:50:35.251Z,91.18
2023-01-22T04:53:02.109Z,91.35
2023-01-22T04:55:29.290Z,91.06
2023-01-22T04:57:57.067Z,91.14
2023-01-22T05:00:24.402Z,91.51
2023-01-22T05:02:51.169Z,90.78
2023-01-22T05:05:17.732Z,91.62
2023-01-22T05:07:44.295Z,91.22
2023-01-22T05:10:10.955Z,91.53
2023-01-22T05:12:37.533Z,91.54
2023-01-22T05:15:14.989Z,91.33
2023-01-22T05:17:45.227Z,91.61
2023-01-22T05:20:12.052Z,91.38
2023-01-22T05:22:38.723Z,91.22
2023-01-22T05:25:05.595Z,91.63
2023-01-22T05:27:32.421Z,91.20
2023-01-22T05:29:59.015Z,91.64
2023-01-22T05:32:25.521Z,91.10
2023-01-22T05:34:52.046Z,91.18
2023-01-22T05:37:18.557Z,90.78
2023-01-22T05:39:45.050Z,91.41
2023-01-22T05:42:14.601Z,91.42
2023-01-22T05:44:41.056Z,91.72
2023-01-22T05:47:08.309Z,91.23
2023-01-22T05:49:34.843Z,91.30
2023-01-22T05:52:01.479Z,91.05
2023-01-22T05:54:27.953Z,91.07
2023-01-22T05:56:54.400Z,91.90
2023-01-22T05:59:20.951Z,90.87
2023-01-22T06:01:47.634Z,91.63
2023-01-22T06:04:14.106Z,91.33
2023-01-22T06:06:40.547Z,90.88
2023-01-22T06:09:07.019Z,91.48
2023-01-22T06:11:33.457Z,91.80
2023-01-22T06:13:59.956Z,91.30
2023-01-22T06:16:26.444Z,91.30
2023-01-22T06:18:52.869Z,91.50
2023-01-22T06:21:19.302Z,91.19
2023-01-22T06:23:46.108Z,91.07
2023-01-22T06:26:12.596Z,91.23
2023-01-22T06:28:39.367Z,91.37
2023-01-22T06:31:07.617Z,91.09
2023-01-22T06:33:34.975Z,91.65
2023-01-22T06:36:02.075Z,91.54
2023-01-22T06:38:28.681Z,91.98
2023-01-22T06:40:56.725Z,91.68
2023-01-22T06:43:24.089Z,91.90
2023-01-22T06:45:50.639Z,91.75
2023-01-22T06:48:17.127Z,91.89
2023-01-22T06:50:43.608Z,91.60
2023-01-22T06:53:10.425Z,92.11
2023-01-22T06:55:37.129Z,92.24
2023-01-22T06:58:03.625Z,91.71
2023-01-22T07:00:30.159Z,91.53
2023-01-22T07:02:57.161Z,91.57
2023-01-22T07:05:23.749Z,91.99
2023-01-22T07:07:53.950Z,92.43
2023-01-22T07:10:20.976Z,92.41
2023-01-22T07:12:48.969Z,91.64
2023-01-22T07:15:15.486Z,91.87
2023-01-22T07:17:41.915Z,91.93
2023-01-22T07:20:09.297Z,91.80
2023-01-22T07:22:35.794Z,91.33
2023-01-22T07:25:02.351Z,91.36
2023-01-22T07:27:30.406Z,91.45
2023-01-22T07:29:56.871Z,91.75
2023-01-22T07:32:23.298Z,91.49
2023-01-22T07:34:49.691Z,91.53
2023-01-22T07:37:16.064Z,92.36
2023-01-22T07:39:42.524Z,91.82
2023-01-22T07:42:08.982Z,91.50
2023-01-22T07:44:36.993Z,91.23
2023-01-22T07:47:03.547Z,91.82
2023-01-22T07:49:29.976Z,91.74
2023-01-22T07:51:56.433Z,91.73
2023-01-22T07:54:23.790Z,91.38
2023-01-22T07:56:50.421Z,91.96
2023-01-22T07:59:16.879Z,92.17
2023-01-22T08:01:43.418Z,91.50
2023-01-22T08:04:09.825Z,92.39
2023-01-22T08:06:36.278Z,91.63
2023-01-22T08:09:02.693Z,91.84
2023-01-22T08:11:29.142Z,91.75
2023-01-22T08:13:55.648Z,91.47
2023-01-22T08:16:22.372Z,91.87
2023-01-22T08:18:49.411Z,91.32
2023-01-22T08:21:15.834Z,91.38
2023-01-22T08:23:45.269Z,91.90
2023-01-22T08:26:13.143Z,91.52
2023-01-22T08:28:39.626Z,91.38
2023-01-22T08:31:09.375Z,91.18
2023-01-22T08:33:38.420Z,91.89
2023-01-22T08:36:05.991Z,92.08
2023-01-22T08:38:32.496Z,92.11
2023-01-22T08:40:59.133Z,91.65
2023-01-22T08:43:25.618Z,91.84
2023-01-22T08:45:52.140Z,92.03
2023-01-22T08:48:18.564Z,92.37
2023-01-22T08:50:45.443Z,92.35
2023-01-22T08:53:11.902Z,92.36
2023-01-22T08:55:38.431Z,92.27
2023-01-22T08:58:05.232Z,92.29
2023-01-22T09:00:32.048Z,92.03
2023-01-22T09:02:59.798Z,91.75
2023-01-22T09:05:27.283Z,92.52
2023-01-22T09:07:53.806Z,92.07
2023-01-22T09:10:21.853Z,91.87
2023-01-22T09:12:48.646Z,91.25
2023-01-22T09:15:15.232Z,91.47
2023-01-22T09:17:42.540Z,91.69
2023-01-22T09:20:09.674Z,91.18
2023-01-22T09:22:36.337Z,91.76
2023-01-22T09:25:02.883Z,90.84
2023-01-22T09:27:30.009Z,91.05
2023-01-22T09:29:56.433Z,90.92
2023-01-22T09:32:22.802Z,90.59
2023-01-22T09:34:49.243Z,90.30
2023-01-22T09:37:15.866Z,90.52
2023-01-22T09:39:42.343Z,90.76
2023-01-22T09:42:13.638Z,90.40
2023-01-22T09:44:43.118Z,90.27
2023-01-22T09:47:15.332Z,89.66
2023-01-22T09:50:04.277Z,89.84
2023-01-22T09:52:33.997Z,89.91
2023-01-22T09:55:00.375Z,90.53
2023-01-22T09:57:31.696Z,91.10
2023-01-22T10:00:03.691Z,90.34
2023-01-22T10:02:35.870Z,90.61
2023-01-22T10:05:23.590Z,90.90
2023-01-22T10:08:00.646Z,90.73
2023-01-22T10:10:28.682Z,90.74
2023-01-22T10:12:59.378Z,90.51
2023-01-22T10:15:26.018Z,90.94
2023-01-22T10:17:54.657Z,90.56
2023-01-22T10:20:21.562Z,90.33
2023-01-22T10:22:48.963Z,90.84
2023-01-22T10:25:16.463Z,90.34
2023-01-22T10:27:44.612Z,90.17
2023-01-22T10:30:14.113Z,89.31
2023-01-22T10:32:40.534Z,89.32
2023-01-22T10:35:17.365Z,90.22
2023-01-22T10:37:49.615Z,89.93
2023-01-22T10:40:33.854Z,89.17
2023-01-22T10:43:10.749Z,89.25
2023-01-22T10:45:37.996Z,89.38
2023-01-22T10:48:06.612Z,87.96
2023-01-22T10:50:33.113Z,88.44
2023-01-22T10:53:00.174Z,87.76
2023-01-22T10:55:30.239Z,87.64
2023-01-22T10:58:02.742Z,86.87
2023-01-22T11:00:50.934Z,87.04
2023-01-22T11:03:23.683Z,87.56
2023-01-22T11:05:57.958Z,87.88
2023-01-22T11:08:30.333Z,87.33
2023-01-22T11:11:02.754Z,87.41
2023-01-22T11:13:38.934Z,87.44
2023-01-22T11:16:16.881Z,86.85
2023-01-22T11:18:48.428Z,87.28
2023-01-22T11:21:50.428Z,86.68
2023-01-22T11:24:39.118Z,87.01
2023-01-22T11:27:15.223Z,87.00
2023-01-22T11:30:18.097Z,87.04
2023-01-22T11:33:24.422Z,87.18
2023-01-22T11:36:17.153Z,86.61
2023-01-22T11:38:51.515Z,87.13
2023-01-22T11:41:57.081Z,86.63
2023-01-22T11:44:41.564Z,86.73
2023-01-22T11:47:25.486Z,86.54
2023-01-22T11:50:13.692Z,85.57
2023-01-22T11:52:48.047Z,86.07
2023-01-22T11:55:25.002Z,85.75
2023-01-22T11:58:20.864Z,86.59
2023-01-22T12:01:02.455Z,86.29
2023-01-22T12:03:48.954Z,86.83
2023-01-22T12:07:03.283Z,86.76
2023-01-22T12:09:37.742Z,86.53
2023-01-22T12:12:42.530Z,85.66
2023-01-22T12:15:46.390Z,86.89
2023-01-22T12:18:40.780Z,86.58
2023-01-22T12:21:09.701Z,87.41
2023-01-22T12:23:46.518Z,87.58
2023-01-22T12:26:25.384Z,86.83
2023-01-22T12:29:10.626Z,86.49
2023-01-22T12:31:47.757Z,85.86
2023-01-22T12:34:23.455Z,84.35
2023-01-22T12:36:50.904Z,84.78
2023-01-22T12:39:42.085Z,85.71
2023-01-22T12:42:27.389Z,84.16
2023-01-22T12:45:00.048Z,85.34
2023-01-22T12:47:40.193Z,84.82
2023-01-22T12:50:24.080Z,85.42
2023-01-22T12:53:01.672Z,85.59
2023-01-22T12:55:30.421Z,84.57
2023-01-22T12:57:57.178Z,84.34
2023-01-22T13:00:31.759Z,84.91
2023-01-22T13:02:58.517Z,84.84
2023-01-22T13:05:31.135Z,85.68
2023-01-22T13:08:24.081Z,85.47
2023-01-22T13:11:02.101Z,85.07
2023-01-22T13:13:44.908Z,85.51
2023-01-22T13:16:34.171Z,86.08
2023-01-22T13:19:12.590Z,86.55
2023-01-22T13:21:39.059Z,87.11
2023-01-22T13:24:18.849Z,87.23
2023-01-22T13:27:00.719Z,86.75
2023-01-22T13:29:36.764Z,87.55
2023-01-22T13:32:20.080Z,87.25
2023-01-22T13:34:47.134Z,87.07
2023-01-22T13:37:26.829Z,87.37
2023-01-22T13:39:53.448Z,87.80
2023-01-22T13:42:20.038Z,87.98
2023-01-22T13:44:49.116Z,88.38
2023-01-22T13:47:35.813Z,88.03
2023-01-22T13:50:02.695Z,88.04
2023-01-22T13:52:29.356Z,88.07
2023-01-22T13:55:01.485Z,88.45
2023-01-22T13:57:28.279Z,88.46
2023-01-22T14:00:00.038Z,88.39
2023-01-22T14:02:35.003Z,87.98
2023-01-22T14:05:02.066Z,88.03
2023-01-22T14:07:34.461Z,88.78
2023-01-22T14:10:15.052Z,88.75
2023-01-22T14:12:41.464Z,88.84
2023-01-22T14:15:16.927Z,88.46
2023-01-22T14:17:43.459Z,88.58
2023-01-22T14:20:10.999Z,88.23
2023-01-22T14:22:37.380Z,88.29
2023-01-22T14:25:04.684Z,88.04
2023-01-22T14:27:43.839Z,88.71
2023-01-22T14:30:14.384Z,88.18
2023-01-22T14:32:42.268Z,88.57
2023-01-22T14:35:16.363Z,88.50
2023-01-22T14:37:43.575Z,88.46
2023-01-22T14:40:12.698Z,88.98
2023-01-22T14:42:39.573Z,88.87
2023-01-22T14:45:06.998Z,88.24
2023-01-22T14:47:34.647Z,88.50
2023-01-22T14:50:02.025Z,88.98
2023-01-22T14:52:28.627Z,88.30
2023-01-22T14:54:56.105Z,88.90
2023-01-22T14:57:23.873Z,89.12
2023-01-22T14:59:50.611Z,89.05
2023-01-22T15:02:17.411Z,89.06
2023-01-22T15:04:45.223Z,88.97
2023-01-22T15:07:12.314Z,88.75
2023-01-22T15:09:39.070Z,89.31
2023-01-22T15:12:06.149Z,89.25
2023-01-22T15:14:32.666Z,89.56
2023-01-22T15:16:59.200Z,89.09
2023-01-22T15:19:25.569Z,89.42
2023-01-22T15:21:51.916Z,89.15
2023-01-22T15:24:18.468Z,89.01
2023-01-22T15:26:45.043Z,90.02
2023-01-22T15:29:13.943Z,89.82
2023-01-22T15:31:40.929Z,89.26
2023-01-22T15:34:08.117Z,89.95
2023-01-22T15:36:36.284Z,90.20
2023-01-22T15:39:03.922Z,89.76
2023-01-22T15:41:32.702Z,90.17
2023-01-22T15:44:03.142Z,89.82
2023-01-22T15:46:32.082Z,89.81
2023-01-22T15:48:59.955Z,90.63
2023-01-22T15:51:27.759Z,90.43
2023-01-22T15:53:56.415Z,90.25
2023-01-22T15:56:25.854Z,90.27
2023-01-22T15:58:53.027Z,90.20
2023-01-22T16:01:20.342Z,90.94
2023-01-22T16:03:47.279Z,90.60
2023-01-22T16:06:18.598Z,90.23
2023-01-22T16:08:45.985Z,89.93
2023-01-22T16:11:13.757Z,90.41
2023-01-22T16:13:40.923Z,89.79
2023-01-22T16:16:14.928Z,89.49
2023-01-22T16:18:41.499Z,89.70
2023-01-22T16:21:08.899Z,90.17
2023-01-22T16:23:41.501Z,89.93
2023-01-22T16:26:09.957Z,89.48
2023-01-22T16:28:37.190Z,89.56
2023-01-22T16:31:05.812Z,88.90
2023-01-22T16:33:33.843Z,89.04
2023-01-22T16:36:15.523Z,89.22
2023-01-22T16:38:42.486Z,89.98
2023-01-22T16:41:24.880Z,89.72
2023-01-22T16:43:58.457Z,90.01
2023-01-22T16:46:29.555Z,89.71
2023-01-22T16:49:10.437Z,89.63
2023-01-22T16:51:39.538Z,90.16
2023-01-22T16:54:07.063Z,89.70
2023-01-22T16:56:33.995Z,90.51
2023-01-22T16:59:00.835Z,90.29
2023-01-22T17:01:29.579Z,90.14
2023-01-22T17:03:56.179Z,90.45
2023-01-22T17:06:30.779Z,90.59
2023-01-22T17:08:57.560Z,90.53
2023-01-22T17:11:24.512Z,90.96
2023-01-22T17:13:50.931Z,90.82
2023-01-22T17:16:17.438Z,90.77
2023-01-22T17:18:44.005Z,90.39
2023-01-22T17:21:12.779Z,90.43
2023-01-22T17:23:39.238Z,91.13
2023-01-22T17:26:10.748Z,90.75
2023-01-22T17:28:37.613Z,90.64
2023-01-22T17:31:08.868Z,90.17
2023-01-22T17:33:35.734Z,90.58
2023-01-22T17:36:03.846Z,90.00
2023-01-22T17:38:33.001Z,90.39
2023-01-22T17:41:11.364Z,90.70
2023-01-22T17:43:38.734Z,90.76
2023-01-22T17:46:08.976Z,90.27
2023-01-22T17:48:36.297Z,90.65
2023-01-22T17:51:07.121Z,90.37
2023-01-22T17:53:36.460Z,90.11
2023-01-22T17:56:11.215Z,89.85
2023-01-22T17:58:37.822Z,90.22
2023-01-22T18:01:39.376Z,89.86
2023-01-22T18:04:08.710Z,90.44
2023-01-22T18:06:36.745Z,89.68
2023-01-22T18:09:05.084Z,90.34
2023-01-22T18:11:33.048Z,89.82
2023-01-22T18:14:22.479Z,90.52
2023-01-22T18:16:49.816Z,90.48
2023-01-22T18:19:18.617Z,90.84
2023-01-22T18:21:45.247Z,90.24
2023-01-22T18:24:13.513Z,90.44
2023-01-22T18:26:40.202Z,90.60
2023-01-22T18:29:07.352Z,90.58
2023-01-22T18:31:34.167Z,90.55
2023-01-22T18:34:02.806Z,91.02
2023-01-22T18:36:31.679Z,91.16
2023-01-22T18:39:03.699Z,91.00
2023-01-22T18:41:30.790Z,91.52
2023-01-22T18:43:59.723Z,91.22
2023-01-22T18:46:31.164Z,91.07
2023-01-22T18:49:03.280Z,90.87
2023-01-22T18:51:31.248Z,90.91
2023-01-22T18:53:57.712Z,90.87
2023-01-22T18:56:25.681Z,91.10
2023-01-22T18:58:56.500Z,91.42
2023-01-22T19:01:26.062Z,91.15
2023-01-22T19:03:55.735Z,91.19
2023-01-22T19:06:24.177Z,91.28
2023-01-22T19:09:03.476Z,91.42
2023-01-22T19:11:32.074Z,91.72
2023-01-22T19:14:00.153Z,91.95
2023-01-22T19:16:28.291Z,91.94
2023-01-22T19:18:56.788Z,91.87
2023-01-22T19:21:24.537Z,91.77
2023-01-22T19:23:54.558Z,92.11
2023-01-22T19:26:24.089Z,92.29
2023-01-22T19:29:04.614Z,92.03
2023-01-22T19:31:37.733Z,91.49
2023-01-22T19:34:04.797Z,91.87
2023-01-22T19:36:34.880Z,91.95
2023-01-22T19:39:03.217Z,92.13
2023-01-22T19:41:29.893Z,92.52
2023-01-22T19:43:59.187Z,92.32
2023-01-22T19:46:26.236Z,92.47
2023-01-22T19:48:53.621Z,92.52
2023-01-22T19:51:22.218Z,92.04
2023-01-22T19:53:49.407Z,92.18
2023-01-22T19:56:17.200Z,92.20
2023-01-22T19:58:43.957Z,91.96
2023-01-22T20:01:13.193Z,92.11
2023-01-22T20:03:39.787Z,91.68
2023-01-22T20:06:07.741Z,92.38
2023-01-22T20:08:36.557Z,92.03
2023-01-22T20:11:04.439Z,92.12
2023-01-22T20:13:32.420Z,91.75
2023-01-22T20:15:59.981Z,92.06
2023-01-22T20:18:28.004Z,91.88
2023-01-22T20:20:58.527Z,92.39
2023-01-22T20:23:26.425Z,92.00
2023-01-22T20:25:53.282Z,91.65
2023-01-22T20:28:20.557Z,92.03
2023-01-22T20:30:58.590Z,91.58
2023-01-22T20:33:25.706Z,92.14
2023-01-22T20:35:59.101Z,91.56
2023-01-22T20:38:25.615Z,91.75
2023-01-22T20:40:53.547Z,91.81
2023-01-22T20:43:20.679Z,92.03
2023-01-22T20:46:00.912Z,91.73
2023-01-22T20:48:29.086Z,91.77
2023-01-22T20:50:55.852Z,91.85
2023-01-22T20:53:22.861Z,91.56
2023-01-22T20:56:04.506Z,92.04
2023-01-22T20:58:31.935Z,91.78
2023-01-22T21:01:07.502Z,91.79
2023-01-22T21:03:34.092Z,92.08
2023-01-22T21:06:05.728Z,92.00
2023-01-22T21:08:32.238Z,91.16
2023-01-22T21:11:00.707Z,91.63
2023-01-22T21:13:27.568Z,91.50
2023-01-22T21:15:54.059Z,91.79
2023-01-22T21:18:22.239Z,91.49
2023-01-22T21:20:48.907Z,91.49
2023-01-22T21:23:16.775Z,91.67
2023-01-22T21:25:43.174Z,91.92
2023-01-22T21:28:10.697Z,92.31
2023-01-22T21:30:37.412Z,91.65
2023-01-22T21:33:03.801Z,91.11
2023-01-22T21:35:30.205Z,91.24
2023-01-22T21:37:56.642Z,91.77
2023-01-22T21:40:23.047Z,91.58
2023-01-22T21:43:08.096Z,91.32
2023-01-22T21:45:53.543Z,91.19
2023-01-22T21:48:20.054Z,91.31
2023-01-22T21:50:47.602Z,91.46
2023-01-22T21:53:14.070Z,90.71
2023-01-22T21:55:49.490Z,91.52
2023-01-22T21:58:15.963Z,91.65
2023-01-22T22:00:44.575Z,91.39
2023-01-22T22:03:10.929Z,91.75
2023-01-22T22:05:37.483Z,91.88
2023-01-22T22:08:03.949Z,91.54
2023-01-22T22:10:32.555Z,90.70
2023-01-22T22:12:58.984Z,90.92
2023-01-22T22:15:25.400Z,91.75
2023-01-22T22:17:51.817Z,91.06
2023-01-22T22:20:18.532Z,90.87
2023-01-22T22:22:45.933Z,90.71
2023-01-22T22:25:12.246Z,91.01
2023-01-22T22:27:38.629Z,90.69
2023-01-22T22:30:05.616Z,91.01
2023-01-22T22:32:32.335Z,91.35
2023-01-22T22:34:58.697Z,90.63
2023-01-22T22:37:25.121Z,91.14
2023-01-22T22:39:52.826Z,90.95
2023-01-22T22:42:19.220Z,91.00
2023-01-22T22:44:45.688Z,91.15
2023-01-22T22:47:12.199Z,90.94
2023-01-22T22:49:38.581Z,91.15
2023-01-22T22:52:04.958Z,91.46
2023-01-22T22:54:31.314Z,90.48
2023-01-22T22:56:58.150Z,91.03
2023-01-22T22:59:25.351Z,91.64
2023-01-22T23:01:51.772Z,91.70
2023-01-22T23:04:19.622Z,91.29
2023-01-22T23:06:46.449Z,91.06
2023-01-22T23:09:17.382Z,91.20
2023-01-22T23:11:43.842Z,90.91
2023-01-22T23:14:10.545Z,91.67
2023-01-22T23:16:40.213Z,90.80
2023-01-22T23:19:21.317Z,91.51
2023-01-22T23:21:56.748Z,91.07
2023-01-22T23:24:23.177Z,90.61
2023-01-22T23:26:50.056Z,91.19
2023-01-22T23:29:21.249Z,90.80
2023-01-22T23:31:48.698Z,91.12
2023-01-22T23:34:18.054Z,91.06
2023-01-22T23:36:46.046Z,91.03
2023-01-22T23:39:14.292Z,91.15
2023-01-22T23:41:41.156Z,90.73
2023-01-22T23:44:07.802Z,91.36
2023-01-22T23:46:36.309Z,91.29
2023-01-22T23:49:04.228Z,91.02
2023-01-22T23:51:31.087Z,90.87
2023-01-22T23:54:08.288Z,90.42
2023-01-22T23:56:35.211Z,90.53
2023-01-22T23:59:01.615Z,90.25
